sensor_id;sensor_type;location;lat;lon;timestamp;P1;durP1;ratioP1;P2;durP2;ratioP2
51800;SDS011;37855;53.204;6.568;2023-04-23T00:01:00;28.07;;;16.80;;
51800;SDS011;37855;53.204;6.568;2023-04-23T00:03:34;30.08;;;17.73;;
51800;SDS011;37855;53.204;6.568;2023-04-23T00:06:04;32.30;;;19.35;;
51800;SDS011;37855;53.204;6.568;2023-04-23T00:08:33;31.63;;;18.42;;
51800;SDS011;37855;53.204;6.568;2023-04-23T00:10:59;33.03;;;19.10;;
51800;SDS011;37855;53.204;6.568;2023-04-23T00:13:25;29.03;;;18.70;;
51800;SDS011;37855;53.204;6.568;2023-04-23T00:15:51;31.52;;;17.77;;
51800;SDS011;37855;53.204;6.568;2023-04-23T00:18:17;32.70;;;18.08;;
51800;SDS011;37855;53.204;6.568;2023-04-23T00:20:44;31.10;;;18.33;;
51800;SDS011;37855;53.204;6.568;2023-04-23T00:23:09;31.90;;;18.40;;
51800;SDS011;37855;53.204;6.568;2023-04-23T00:25:35;31.75;;;19.50;;
51800;SDS011;37855;53.204;6.568;2023-04-23T00:28:01;34.30;;;19.23;;
51800;SDS011;37855;53.204;6.568;2023-04-23T00:30:27;30.45;;;17.60;;
51800;SDS011;37855;53.204;6.568;2023-04-23T00:32:53;34.15;;;19.33;;
51800;SDS011;37855;53.204;6.568;2023-04-23T00:35:19;33.30;;;18.80;;
51800;SDS011;37855;53.204;6.568;2023-04-23T00:37:45;34.08;;;18.70;;
51800;SDS011;37855;53.204;6.568;2023-04-23T00:40:11;33.20;;;17.90;;
51800;SDS011;37855;53.204;6.568;2023-04-23T00:42:37;31.45;;;17.75;;
51800;SDS011;37855;53.204;6.568;2023-04-23T00:45:04;28.42;;;17.70;;
51800;SDS011;37855;53.204;6.568;2023-04-23T00:47:32;29.25;;;17.23;;
51800;SDS011;37855;53.204;6.568;2023-04-23T00:50:01;29.70;;;17.85;;
51800;SDS011;37855;53.204;6.568;2023-04-23T00:52:27;30.53;;;17.87;;
51800;SDS011;37855;53.204;6.568;2023-04-23T00:54:53;32.65;;;18.38;;
51800;SDS011;37855;53.204;6.568;2023-04-23T00:57:20;29.35;;;17.17;;
51800;SDS011;37855;53.204;6.568;2023-04-23T00:59:46;28.95;;;17.13;;
51800;SDS011;37855;53.204;6.568;2023-04-23T01:02:12;27.70;;;16.90;;
51800;SDS011;37855;53.204;6.568;2023-04-23T01:04:38;29.92;;;17.80;;
51800;SDS011;37855;53.204;6.568;2023-04-23T01:07:07;28.88;;;17.83;;
51800;SDS011;37855;53.204;6.568;2023-04-23T01:09:33;42.57;;;17.70;;
51800;SDS011;37855;53.204;6.568;2023-04-23T01:11:58;27.83;;;16.88;;
51800;SDS011;37855;53.204;6.568;2023-04-23T01:14:26;29.88;;;17.67;;
51800;SDS011;37855;53.204;6.568;2023-04-23T01:16:52;28.73;;;17.50;;
51800;SDS011;37855;53.204;6.568;2023-04-23T01:19:18;29.67;;;17.30;;
51800;SDS011;37855;53.204;6.568;2023-04-23T01:21:44;28.15;;;17.10;;
51800;SDS011;37855;53.204;6.568;2023-04-23T01:24:09;28.33;;;17.50;;
51800;SDS011;37855;53.204;6.568;2023-04-23T01:26:35;31.05;;;17.70;;
51800;SDS011;37855;53.204;6.568;2023-04-23T01:29:02;30.48;;;17.65;;
51800;SDS011;37855;53.204;6.568;2023-04-23T01:31:28;28.23;;;16.90;;
51800;SDS011;37855;53.204;6.568;2023-04-23T01:33:55;31.80;;;17.30;;
51800;SDS011;37855;53.204;6.568;2023-04-23T01:36:22;29.90;;;17.95;;
51800;SDS011;37855;53.204;6.568;2023-04-23T01:38:48;31.55;;;17.85;;
51800;SDS011;37855;53.204;6.568;2023-04-23T01:41:14;30.63;;;17.83;;
51800;SDS011;37855;53.204;6.568;2023-04-23T01:43:40;28.85;;;17.10;;
51800;SDS011;37855;53.204;6.568;2023-04-23T01:46:07;29.52;;;17.35;;
51800;SDS011;37855;53.204;6.568;2023-04-23T01:48:33;32.30;;;18.00;;
51800;SDS011;37855;53.204;6.568;2023-04-23T01:50:59;30.27;;;17.67;;
51800;SDS011;37855;53.204;6.568;2023-04-23T01:53:25;30.33;;;18.13;;
51800;SDS011;37855;53.204;6.568;2023-04-23T01:55:51;29.27;;;17.77;;
51800;SDS011;37855;53.204;6.568;2023-04-23T01:58:19;30.52;;;18.15;;
51800;SDS011;37855;53.204;6.568;2023-04-23T02:00:45;31.60;;;18.10;;
51800;SDS011;37855;53.204;6.568;2023-04-23T02:03:11;33.63;;;18.73;;
51800;SDS011;37855;53.204;6.568;2023-04-23T02:05:36;31.23;;;19.10;;
51800;SDS011;37855;53.204;6.568;2023-04-23T02:08:05;32.60;;;19.03;;
51800;SDS011;37855;53.204;6.568;2023-04-23T02:10:31;33.30;;;19.88;;
51800;SDS011;37855;53.204;6.568;2023-04-23T02:12:58;34.67;;;18.95;;
51800;SDS011;37855;53.204;6.568;2023-04-23T02:15:24;38.00;;;21.30;;
51800;SDS011;37855;53.204;6.568;2023-04-23T02:17:49;39.77;;;21.40;;
51800;SDS011;37855;53.204;6.568;2023-04-23T02:20:16;37.38;;;20.98;;
51800;SDS011;37855;53.204;6.568;2023-04-23T02:22:42;38.13;;;21.65;;
51800;SDS011;37855;53.204;6.568;2023-04-23T02:25:08;38.78;;;21.83;;
51800;SDS011;37855;53.204;6.568;2023-04-23T02:27:34;44.23;;;21.53;;
51800;SDS011;37855;53.204;6.568;2023-04-23T02:30:00;44.08;;;23.92;;
51800;SDS011;37855;53.204;6.568;2023-04-23T02:32:27;43.30;;;23.02;;
51800;SDS011;37855;53.204;6.568;2023-04-23T02:34:53;43.03;;;22.50;;
51800;SDS011;37855;53.204;6.568;2023-04-23T02:37:19;44.17;;;23.53;;
51800;SDS011;37855;53.204;6.568;2023-04-23T02:39:45;42.33;;;23.45;;
51800;SDS011;37855;53.204;6.568;2023-04-23T02:42:11;42.90;;;24.23;;
51800;SDS011;37855;53.204;6.568;2023-04-23T02:44:37;44.78;;;24.42;;
51800;SDS011;37855;53.204;6.568;2023-04-23T02:47:02;43.67;;;23.03;;
51800;SDS011;37855;53.204;6.568;2023-04-23T02:49:28;44.73;;;23.73;;
51800;SDS011;37855;53.204;6.568;2023-04-23T02:51:54;44.40;;;24.05;;
51800;SDS011;37855;53.204;6.568;2023-04-23T02:54:20;45.45;;;24.38;;
51800;SDS011;37855;53.204;6.568;2023-04-23T02:56:48;48.95;;;25.15;;
51800;SDS011;37855;53.204;6.568;2023-04-23T02:59:15;48.00;;;24.30;;
51800;SDS011;37855;53.204;6.568;2023-04-23T03:01:41;44.28;;;24.25;;
51800;SDS011;37855;53.204;6.568;2023-04-23T03:04:08;47.15;;;24.88;;
51800;SDS011;37855;53.204;6.568;2023-04-23T03:06:34;43.33;;;24.00;;
51800;SDS011;37855;53.204;6.568;2023-04-23T03:09:00;46.65;;;24.27;;
51800;SDS011;37855;53.204;6.568;2023-04-23T03:11:28;48.50;;;24.77;;
51800;SDS011;37855;53.204;6.568;2023-04-23T03:13:54;51.53;;;25.40;;
51800;SDS011;37855;53.204;6.568;2023-04-23T03:16:20;48.75;;;26.23;;
51800;SDS011;37855;53.204;6.568;2023-04-23T03:18:45;52.37;;;27.10;;
51800;SDS011;37855;53.204;6.568;2023-04-23T03:21:11;50.15;;;25.92;;
51800;SDS011;37855;53.204;6.568;2023-04-23T03:23:37;49.13;;;26.73;;
51800;SDS011;37855;53.204;6.568;2023-04-23T03:26:02;53.47;;;27.23;;
51800;SDS011;37855;53.204;6.568;2023-04-23T03:28:29;60.53;;;28.03;;
51800;SDS011;37855;53.204;6.568;2023-04-23T03:30:55;48.85;;;25.98;;
51800;SDS011;37855;53.204;6.568;2023-04-23T03:33:21;53.22;;;27.42;;
51800;SDS011;37855;53.204;6.568;2023-04-23T03:35:46;53.33;;;27.27;;
51800;SDS011;37855;53.204;6.568;2023-04-23T03:38:12;53.75;;;25.77;;
51800;SDS011;37855;53.204;6.568;2023-04-23T03:40:39;51.67;;;26.55;;
51800;SDS011;37855;53.204;6.568;2023-04-23T03:43:04;51.93;;;28.13;;
51800;SDS011;37855;53.204;6.568;2023-04-23T03:45:31;55.72;;;28.02;;
51800;SDS011;37855;53.204;6.568;2023-04-23T03:47:56;54.13;;;26.80;;
51800;SDS011;37855;53.204;6.568;2023-04-23T03:50:22;57.90;;;27.83;;
51800;SDS011;37855;53.204;6.568;2023-04-23T03:52:47;56.13;;;28.60;;
51800;SDS011;37855;53.204;6.568;2023-04-23T03:55:14;56.20;;;29.55;;
51800;SDS011;37855;53.204;6.568;2023-04-23T03:57:39;56.25;;;28.88;;
51800;SDS011;37855;53.204;6.568;2023-04-23T04:00:05;60.90;;;29.80;;
51800;SDS011;37855;53.204;6.568;2023-04-23T04:02:37;56.17;;;29.15;;
51800;SDS011;37855;53.204;6.568;2023-04-23T04:05:06;59.80;;;30.27;;
51800;SDS011;37855;53.204;6.568;2023-04-23T04:07:33;57.57;;;29.43;;
51800;SDS011;37855;53.204;6.568;2023-04-23T04:10:01;60.88;;;30.77;;
51800;SDS011;37855;53.204;6.568;2023-04-23T04:12:27;64.13;;;32.70;;
51800;SDS011;37855;53.204;6.568;2023-04-23T04:14:53;68.18;;;32.67;;
51800;SDS011;37855;53.204;6.568;2023-04-23T04:17:19;64.40;;;32.50;;
51800;SDS011;37855;53.204;6.568;2023-04-23T04:19:44;64.63;;;32.08;;
51800;SDS011;37855;53.204;6.568;2023-04-23T04:22:10;66.03;;;32.30;;
51800;SDS011;37855;53.204;6.568;2023-04-23T04:24:36;66.80;;;32.58;;
51800;SDS011;37855;53.204;6.568;2023-04-23T04:27:02;66.70;;;32.55;;
51800;SDS011;37855;53.204;6.568;2023-04-23T04:29:29;69.50;;;34.15;;
51800;SDS011;37855;53.204;6.568;2023-04-23T04:31:56;70.50;;;34.17;;
51800;SDS011;37855;53.204;6.568;2023-04-23T04:34:22;67.82;;;32.72;;
51800;SDS011;37855;53.204;6.568;2023-04-23T04:36:47;69.90;;;33.05;;
51800;SDS011;37855;53.204;6.568;2023-04-23T04:39:15;65.67;;;32.40;;
51800;SDS011;37855;53.204;6.568;2023-04-23T04:41:44;66.68;;;31.48;;
51800;SDS011;37855;53.204;6.568;2023-04-23T04:44:13;64.68;;;32.55;;
51800;SDS011;37855;53.204;6.568;2023-04-23T04:46:40;63.95;;;30.58;;
51800;SDS011;37855;53.204;6.568;2023-04-23T04:49:07;65.63;;;32.45;;
51800;SDS011;37855;53.204;6.568;2023-04-23T04:51:36;65.20;;;31.73;;
51800;SDS011;37855;53.204;6.568;2023-04-23T04:54:02;62.45;;;31.05;;
51800;SDS011;37855;53.204;6.568;2023-04-23T04:56:31;62.47;;;30.38;;
51800;SDS011;37855;53.204;6.568;2023-04-23T04:58:57;62.00;;;30.92;;
51800;SDS011;37855;53.204;6.568;2023-04-23T05:01:22;59.73;;;30.03;;
51800;SDS011;37855;53.204;6.568;2023-04-23T05:03:59;62.03;;;30.02;;
51800;SDS011;37855;53.204;6.568;2023-04-23T05:06:24;58.72;;;30.60;;
51800;SDS011;37855;53.204;6.568;2023-04-23T05:08:52;61.47;;;29.50;;
51800;SDS011;37855;53.204;6.568;2023-04-23T05:11:21;61.23;;;29.90;;
51800;SDS011;37855;53.204;6.568;2023-04-23T05:13:46;61.70;;;30.85;;
51800;SDS011;37855;53.204;6.568;2023-04-23T05:16:13;62.55;;;30.25;;
51800;SDS011;37855;53.204;6.568;2023-04-23T05:18:41;59.70;;;30.77;;
51800;SDS011;37855;53.204;6.568;2023-04-23T05:21:07;59.17;;;29.93;;
51800;SDS011;37855;53.204;6.568;2023-04-23T05:23:36;56.83;;;29.50;;
51800;SDS011;37855;53.204;6.568;2023-04-23T05:26:04;57.53;;;29.88;;
51800;SDS011;37855;53.204;6.568;2023-04-23T05:28:30;57.57;;;29.73;;
51800;SDS011;37855;53.204;6.568;2023-04-23T05:30:56;58.42;;;30.30;;
51800;SDS011;37855;53.204;6.568;2023-04-23T05:33:28;57.80;;;29.80;;
51800;SDS011;37855;53.204;6.568;2023-04-23T05:35:53;54.08;;;29.77;;
51800;SDS011;37855;53.204;6.568;2023-04-23T05:38:22;57.30;;;29.47;;
51800;SDS011;37855;53.204;6.568;2023-04-23T05:40:47;52.85;;;28.75;;
51800;SDS011;37855;53.204;6.568;2023-04-23T05:43:13;55.10;;;29.50;;
51800;SDS011;37855;53.204;6.568;2023-04-23T05:45:39;54.80;;;28.93;;
51800;SDS011;37855;53.204;6.568;2023-04-23T05:48:04;53.88;;;28.30;;
51800;SDS011;37855;53.204;6.568;2023-04-23T05:50:30;53.60;;;28.87;;
51800;SDS011;37855;53.204;6.568;2023-04-23T05:52:56;57.42;;;30.02;;
51800;SDS011;37855;53.204;6.568;2023-04-23T05:55:21;56.87;;;29.60;;
51800;SDS011;37855;53.204;6.568;2023-04-23T05:57:48;54.35;;;29.38;;
51800;SDS011;37855;53.204;6.568;2023-04-23T06:00:13;54.38;;;29.55;;
51800;SDS011;37855;53.204;6.568;2023-04-23T06:02:42;58.63;;;29.73;;
51800;SDS011;37855;53.204;6.568;2023-04-23T06:05:07;58.47;;;30.60;;
51800;SDS011;37855;53.204;6.568;2023-04-23T06:07:34;56.72;;;29.63;;
51800;SDS011;37855;53.204;6.568;2023-04-23T06:10:00;57.88;;;30.73;;
51800;SDS011;37855;53.204;6.568;2023-04-23T06:12:26;57.33;;;29.63;;
51800;SDS011;37855;53.204;6.568;2023-04-23T06:14:52;57.88;;;30.58;;
51800;SDS011;37855;53.204;6.568;2023-04-23T06:17:17;60.97;;;31.97;;
51800;SDS011;37855;53.204;6.568;2023-04-23T06:19:43;59.13;;;30.33;;
51800;SDS011;37855;53.204;6.568;2023-04-23T06:22:09;61.57;;;31.13;;
51800;SDS011;37855;53.204;6.568;2023-04-23T06:24:37;64.32;;;32.08;;
51800;SDS011;37855;53.204;6.568;2023-04-23T06:27:03;64.72;;;33.47;;
51800;SDS011;37855;53.204;6.568;2023-04-23T06:29:29;61.63;;;31.70;;
51800;SDS011;37855;53.204;6.568;2023-04-23T06:31:54;60.38;;;32.35;;
51800;SDS011;37855;53.204;6.568;2023-04-23T06:34:21;60.67;;;33.00;;
51800;SDS011;37855;53.204;6.568;2023-04-23T06:36:47;61.10;;;30.57;;
51800;SDS011;37855;53.204;6.568;2023-04-23T06:39:12;60.67;;;32.63;;
51800;SDS011;37855;53.204;6.568;2023-04-23T06:41:38;61.67;;;33.07;;
51800;SDS011;37855;53.204;6.568;2023-04-23T06:44:04;61.00;;;32.10;;
51800;SDS011;37855;53.204;6.568;2023-04-23T06:46:30;60.43;;;30.87;;
51800;SDS011;37855;53.204;6.568;2023-04-23T06:48:55;61.75;;;31.85;;
51800;SDS011;37855;53.204;6.568;2023-04-23T06:51:23;66.77;;;33.13;;
51800;SDS011;37855;53.204;6.568;2023-04-23T06:53:49;57.67;;;31.70;;
51800;SDS011;37855;53.204;6.568;2023-04-23T06:56:18;58.83;;;30.95;;
51800;SDS011;37855;53.204;6.568;2023-04-23T06:58:44;55.95;;;30.40;;
51800;SDS011;37855;53.204;6.568;2023-04-23T07:01:09;53.57;;;30.33;;
51800;SDS011;37855;53.204;6.568;2023-04-23T07:03:35;57.63;;;30.57;;
51800;SDS011;37855;53.204;6.568;2023-04-23T07:06:01;56.90;;;29.42;;
51800;SDS011;37855;53.204;6.568;2023-04-23T07:08:27;56.80;;;28.95;;
51800;SDS011;37855;53.204;6.568;2023-04-23T07:10:53;53.80;;;29.00;;
51800;SDS011;37855;53.204;6.568;2023-04-23T07:13:18;53.72;;;29.48;;
51800;SDS011;37855;53.204;6.568;2023-04-23T07:15:44;54.50;;;29.67;;
51800;SDS011;37855;53.204;6.568;2023-04-23T07:18:10;52.38;;;28.98;;
51800;SDS011;37855;53.204;6.568;2023-04-23T07:20:36;52.47;;;28.98;;
51800;SDS011;37855;53.204;6.568;2023-04-23T07:23:02;52.80;;;29.03;;
51800;SDS011;37855;53.204;6.568;2023-04-23T07:25:28;52.20;;;29.08;;
51800;SDS011;37855;53.204;6.568;2023-04-23T07:27:55;50.05;;;27.70;;
51800;SDS011;37855;53.204;6.568;2023-04-23T07:30:21;51.93;;;28.00;;
51800;SDS011;37855;53.204;6.568;2023-04-23T07:32:51;53.38;;;28.60;;
51800;SDS011;37855;53.204;6.568;2023-04-23T07:35:17;52.53;;;28.63;;
51800;SDS011;37855;53.204;6.568;2023-04-23T07:37:43;50.95;;;28.15;;
51800;SDS011;37855;53.204;6.568;2023-04-23T07:40:08;48.37;;;27.13;;
51800;SDS011;37855;53.204;6.568;2023-04-23T07:42:34;46.65;;;26.92;;
51800;SDS011;37855;53.204;6.568;2023-04-23T07:45:00;47.10;;;26.87;;
51800;SDS011;37855;53.204;6.568;2023-04-23T07:47:26;46.50;;;26.50;;
51800;SDS011;37855;53.204;6.568;2023-04-23T07:49:51;44.93;;;26.07;;
51800;SDS011;37855;53.204;6.568;2023-04-23T07:52:17;46.27;;;26.50;;
51800;SDS011;37855;53.204;6.568;2023-04-23T07:54:43;44.13;;;26.27;;
51800;SDS011;37855;53.204;6.568;2023-04-23T07:57:09;48.00;;;26.83;;
51800;SDS011;37855;53.204;6.568;2023-04-23T07:59:35;45.50;;;26.52;;
51800;SDS011;37855;53.204;6.568;2023-04-23T08:02:03;41.30;;;24.60;;
51800;SDS011;37855;53.204;6.568;2023-04-23T08:04:29;43.40;;;26.17;;
51800;SDS011;37855;53.204;6.568;2023-04-23T08:06:58;40.42;;;23.77;;
51800;SDS011;37855;53.204;6.568;2023-04-23T08:09:24;41.42;;;24.85;;
51800;SDS011;37855;53.204;6.568;2023-04-23T08:11:50;42.33;;;25.40;;
51800;SDS011;37855;53.204;6.568;2023-04-23T08:14:16;42.73;;;23.87;;
51800;SDS011;37855;53.204;6.568;2023-04-23T08:16:42;42.63;;;23.83;;
51800;SDS011;37855;53.204;6.568;2023-04-23T08:19:08;40.90;;;23.83;;
51800;SDS011;37855;53.204;6.568;2023-04-23T08:21:33;40.97;;;23.88;;
51800;SDS011;37855;53.204;6.568;2023-04-23T08:24:00;39.15;;;23.42;;
51800;SDS011;37855;53.204;6.568;2023-04-23T08:26:29;42.10;;;24.33;;
51800;SDS011;37855;53.204;6.568;2023-04-23T08:28:55;39.85;;;23.23;;
51800;SDS011;37855;53.204;6.568;2023-04-23T08:31:21;39.45;;;23.10;;
51800;SDS011;37855;53.204;6.568;2023-04-23T08:33:50;36.05;;;22.67;;
51800;SDS011;37855;53.204;6.568;2023-04-23T08:36:15;35.13;;;20.43;;
51800;SDS011;37855;53.204;6.568;2023-04-23T08:41:13;38.57;;;23.07;;
51800;SDS011;37855;53.204;6.568;2023-04-23T08:43:43;34.58;;;21.52;;
51800;SDS011;37855;53.204;6.568;2023-04-23T08:46:16;34.45;;;20.17;;
51800;SDS011;37855;53.204;6.568;2023-04-23T08:48:43;36.30;;;21.27;;
51800;SDS011;37855;53.204;6.568;2023-04-23T08:51:12;34.28;;;20.92;;
51800;SDS011;37855;53.204;6.568;2023-04-23T08:53:43;35.57;;;21.27;;
51800;SDS011;37855;53.204;6.568;2023-04-23T08:56:10;32.90;;;20.23;;
51800;SDS011;37855;53.204;6.568;2023-04-23T08:58:37;31.40;;;19.13;;
51800;SDS011;37855;53.204;6.568;2023-04-23T09:01:05;32.15;;;19.60;;
51800;SDS011;37855;53.204;6.568;2023-04-23T09:03:32;32.92;;;19.40;;
51800;SDS011;37855;53.204;6.568;2023-04-23T09:05:58;29.73;;;18.47;;
51800;SDS011;37855;53.204;6.568;2023-04-23T09:08:24;28.80;;;17.85;;
51800;SDS011;37855;53.204;6.568;2023-04-23T09:10:50;28.52;;;16.60;;
51800;SDS011;37855;53.204;6.568;2023-04-23T09:13:19;29.40;;;17.23;;
51800;SDS011;37855;53.204;6.568;2023-04-23T09:15:45;27.73;;;16.83;;
51800;SDS011;37855;53.204;6.568;2023-04-23T09:18:11;28.63;;;16.38;;
51800;SDS011;37855;53.204;6.568;2023-04-23T09:20:36;26.70;;;16.03;;
51800;SDS011;37855;53.204;6.568;2023-04-23T09:23:05;26.42;;;15.95;;
51800;SDS011;37855;53.204;6.568;2023-04-23T09:25:33;25.05;;;16.08;;
51800;SDS011;37855;53.204;6.568;2023-04-23T09:27:58;28.63;;;16.50;;
51800;SDS011;37855;53.204;6.568;2023-04-23T09:30:27;26.35;;;16.10;;
51800;SDS011;37855;53.204;6.568;2023-04-23T09:32:53;26.00;;;15.05;;
51800;SDS011;37855;53.204;6.568;2023-04-23T09:35:19;25.57;;;15.33;;
51800;SDS011;37855;53.204;6.568;2023-04-23T09:37:46;25.00;;;15.10;;
51800;SDS011;37855;53.204;6.568;2023-04-23T09:40:14;24.05;;;14.35;;
51800;SDS011;37855;53.204;6.568;2023-04-23T09:42:45;21.63;;;12.73;;
51800;SDS011;37855;53.204;6.568;2023-04-23T09:45:16;22.25;;;13.10;;
51800;SDS011;37855;53.204;6.568;2023-04-23T09:47:55;23.77;;;13.70;;
51800;SDS011;37855;53.204;6.568;2023-04-23T09:53:07;20.20;;;12.45;;
51800;SDS011;37855;53.204;6.568;2023-04-23T09:55:34;19.63;;;11.90;;
51800;SDS011;37855;53.204;6.568;2023-04-23T09:58:02;22.63;;;12.18;;
51800;SDS011;37855;53.204;6.568;2023-04-23T10:00:33;20.00;;;12.07;;
51800;SDS011;37855;53.204;6.568;2023-04-23T10:03:00;19.45;;;10.98;;
51800;SDS011;37855;53.204;6.568;2023-04-23T10:05:29;20.13;;;11.50;;
51800;SDS011;37855;53.204;6.568;2023-04-23T10:07:55;17.52;;;10.02;;
51800;SDS011;37855;53.204;6.568;2023-04-23T10:10:21;20.17;;;11.23;;
51800;SDS011;37855;53.204;6.568;2023-04-23T10:12:49;20.57;;;10.97;;
51800;SDS011;37855;53.204;6.568;2023-04-23T10:15:17;17.13;;;10.20;;
51800;SDS011;37855;53.204;6.568;2023-04-23T10:17:43;16.33;;;9.45;;
51800;SDS011;37855;53.204;6.568;2023-04-23T10:20:10;17.00;;;8.95;;
51800;SDS011;37855;53.204;6.568;2023-04-23T10:22:37;16.80;;;8.93;;
51800;SDS011;37855;53.204;6.568;2023-04-23T10:25:08;14.03;;;6.30;;
51800;SDS011;37855;53.204;6.568;2023-04-23T10:27:38;13.68;;;6.25;;
51800;SDS011;37855;53.204;6.568;2023-04-23T10:30:08;13.23;;;6.05;;
51800;SDS011;37855;53.204;6.568;2023-04-23T10:32:41;13.90;;;6.25;;
51800;SDS011;37855;53.204;6.568;2023-04-23T10:35:18;11.82;;;6.40;;
51800;SDS011;37855;53.204;6.568;2023-04-23T10:37:44;14.30;;;6.53;;
51800;SDS011;37855;53.204;6.568;2023-04-23T10:40:12;13.88;;;6.00;;
51800;SDS011;37855;53.204;6.568;2023-04-23T10:42:41;12.90;;;5.53;;
51800;SDS011;37855;53.204;6.568;2023-04-23T10:45:14;11.43;;;5.03;;
51800;SDS011;37855;53.204;6.568;2023-04-23T10:47:44;11.25;;;5.10;;
51800;SDS011;37855;53.204;6.568;2023-04-23T10:50:43;10.30;;;4.50;;
51800;SDS011;37855;53.204;6.568;2023-04-23T10:53:02;11.27;;;3.90;;
51800;SDS011;37855;53.204;6.568;2023-04-23T10:55:29;11.52;;;4.10;;
51800;SDS011;37855;53.204;6.568;2023-04-23T11:00:42;12.00;;;4.40;;
51800;SDS011;37855;53.204;6.568;2023-04-23T11:06:05;12.77;;;4.28;;
51800;SDS011;37855;53.204;6.568;2023-04-23T11:08:34;12.52;;;4.13;;
51800;SDS011;37855;53.204;6.568;2023-04-23T11:11:01;10.18;;;3.78;;
51800;SDS011;37855;53.204;6.568;2023-04-23T11:13:30;11.23;;;4.15;;
51800;SDS011;37855;53.204;6.568;2023-04-23T11:18:53;10.90;;;4.00;;
51800;SDS011;37855;53.204;6.568;2023-04-23T11:21:19;8.85;;;3.42;;
51800;SDS011;37855;53.204;6.568;2023-04-23T11:23:45;10.37;;;3.63;;
51800;SDS011;37855;53.204;6.568;2023-04-23T11:26:10;8.73;;;3.33;;
51800;SDS011;37855;53.204;6.568;2023-04-23T11:28:42;10.20;;;3.28;;
51800;SDS011;37855;53.204;6.568;2023-04-23T11:31:08;10.40;;;3.38;;
51800;SDS011;37855;53.204;6.568;2023-04-23T11:33:35;8.75;;;3.17;;
51800;SDS011;37855;53.204;6.568;2023-04-23T11:36:02;8.57;;;3.25;;
51800;SDS011;37855;53.204;6.568;2023-04-23T11:38:31;8.17;;;3.50;;
51800;SDS011;37855;53.204;6.568;2023-04-23T11:41:01;9.02;;;3.00;;
51800;SDS011;37855;53.204;6.568;2023-04-23T11:43:27;10.30;;;3.65;;
51800;SDS011;37855;53.204;6.568;2023-04-23T11:45:53;9.07;;;3.08;;
51800;SDS011;37855;53.204;6.568;2023-04-23T11:48:22;7.95;;;2.72;;
51800;SDS011;37855;53.204;6.568;2023-04-23T11:50:50;6.63;;;2.97;;
51800;SDS011;37855;53.204;6.568;2023-04-23T11:53:17;8.55;;;3.70;;
51800;SDS011;37855;53.204;6.568;2023-04-23T11:55:47;8.77;;;3.30;;
51800;SDS011;37855;53.204;6.568;2023-04-23T11:58:16;8.93;;;3.03;;
51800;SDS011;37855;53.204;6.568;2023-04-23T12:00:42;8.95;;;3.38;;
51800;SDS011;37855;53.204;6.568;2023-04-23T12:03:08;8.00;;;2.83;;
51800;SDS011;37855;53.204;6.568;2023-04-23T12:05:34;7.38;;;2.80;;
51800;SDS011;37855;53.204;6.568;2023-04-23T12:08:16;7.00;;;2.63;;
51800;SDS011;37855;53.204;6.568;2023-04-23T12:10:51;9.95;;;2.80;;
51800;SDS011;37855;53.204;6.568;2023-04-23T12:13:20;7.93;;;3.08;;
51800;SDS011;37855;53.204;6.568;2023-04-23T12:16:03;10.85;;;2.90;;
51800;SDS011;37855;53.204;6.568;2023-04-23T12:18:30;7.03;;;2.70;;
51800;SDS011;37855;53.204;6.568;2023-04-23T12:21:17;8.00;;;2.77;;
51800;SDS011;37855;53.204;6.568;2023-04-23T12:23:43;9.40;;;2.78;;
51800;SDS011;37855;53.204;6.568;2023-04-23T12:26:11;8.55;;;2.47;;
51800;SDS011;37855;53.204;6.568;2023-04-23T12:34:02;8.43;;;2.38;;
51800;SDS011;37855;53.204;6.568;2023-04-23T12:36:28;8.55;;;2.42;;
51800;SDS011;37855;53.204;6.568;2023-04-23T12:41:30;7.38;;;2.00;;
51800;SDS011;37855;53.204;6.568;2023-04-23T12:43:56;6.93;;;1.80;;
51800;SDS011;37855;53.204;6.568;2023-04-23T12:46:22;6.40;;;1.75;;
51800;SDS011;37855;53.204;6.568;2023-04-23T12:48:48;7.17;;;1.80;;
51800;SDS011;37855;53.204;6.568;2023-04-23T12:51:13;6.88;;;2.15;;
51800;SDS011;37855;53.204;6.568;2023-04-23T12:53:39;6.33;;;2.20;;
51800;SDS011;37855;53.204;6.568;2023-04-23T12:56:04;7.85;;;1.95;;
51800;SDS011;37855;53.204;6.568;2023-04-23T12:58:30;8.07;;;2.10;;
51800;SDS011;37855;53.204;6.568;2023-04-23T13:00:56;8.40;;;1.97;;
51800;SDS011;37855;53.204;6.568;2023-04-23T13:03:24;6.50;;;1.77;;
51800;SDS011;37855;53.204;6.568;2023-04-23T13:05:50;8.57;;;2.30;;
51800;SDS011;37855;53.204;6.568;2023-04-23T13:08:15;8.23;;;2.00;;
51800;SDS011;37855;53.204;6.568;2023-04-23T13:10:41;8.13;;;2.27;;
51800;SDS011;37855;53.204;6.568;2023-04-23T13:13:08;6.60;;;1.70;;
51800;SDS011;37855;53.204;6.568;2023-04-23T13:15:34;6.38;;;1.60;;
51800;SDS011;37855;53.204;6.568;2023-04-23T13:18:00;6.93;;;1.80;;
51800;SDS011;37855;53.204;6.568;2023-04-23T13:20:25;8.67;;;1.93;;
51800;SDS011;37855;53.204;6.568;2023-04-23T13:22:51;7.22;;;1.90;;
51800;SDS011;37855;53.204;6.568;2023-04-23T13:25:17;8.30;;;1.90;;
51800;SDS011;37855;53.204;6.568;2023-04-23T13:27:42;7.40;;;1.90;;
51800;SDS011;37855;53.204;6.568;2023-04-23T13:30:08;7.10;;;2.10;;
51800;SDS011;37855;53.204;6.568;2023-04-23T13:32:35;7.65;;;2.03;;
51800;SDS011;37855;53.204;6.568;2023-04-23T13:35:00;7.15;;;2.10;;
51800;SDS011;37855;53.204;6.568;2023-04-23T13:37:28;6.57;;;2.13;;
51800;SDS011;37855;53.204;6.568;2023-04-23T13:39:57;8.80;;;1.95;;
51800;SDS011;37855;53.204;6.568;2023-04-23T13:42:23;7.78;;;2.88;;
51800;SDS011;37855;53.204;6.568;2023-04-23T13:44:49;6.03;;;1.90;;
51800;SDS011;37855;53.204;6.568;2023-04-23T13:47:14;7.28;;;2.00;;
51800;SDS011;37855;53.204;6.568;2023-04-23T13:49:40;6.10;;;1.90;;
51800;SDS011;37855;53.204;6.568;2023-04-23T13:52:06;8.82;;;1.95;;
51800;SDS011;37855;53.204;6.568;2023-04-23T13:54:33;7.07;;;2.38;;
51800;SDS011;37855;53.204;6.568;2023-04-23T13:56:59;6.60;;;1.73;;
51800;SDS011;37855;53.204;6.568;2023-04-23T13:59:25;7.78;;;1.80;;
51800;SDS011;37855;53.204;6.568;2023-04-23T14:01:51;7.00;;;1.85;;
51800;SDS011;37855;53.204;6.568;2023-04-23T14:04:17;6.93;;;1.60;;
51800;SDS011;37855;53.204;6.568;2023-04-23T14:06:44;10.32;;;2.17;;
51800;SDS011;37855;53.204;6.568;2023-04-23T14:09:10;6.95;;;1.63;;
51800;SDS011;37855;53.204;6.568;2023-04-23T14:11:36;7.60;;;1.90;;
51800;SDS011;37855;53.204;6.568;2023-04-23T14:14:04;6.43;;;1.95;;
51800;SDS011;37855;53.204;6.568;2023-04-23T14:16:32;8.30;;;1.60;;
51800;SDS011;37855;53.204;6.568;2023-04-23T14:19:00;8.45;;;1.90;;
51800;SDS011;37855;53.204;6.568;2023-04-23T14:21:26;8.20;;;1.80;;
51800;SDS011;37855;53.204;6.568;2023-04-23T14:24:06;6.15;;;2.17;;
51800;SDS011;37855;53.204;6.568;2023-04-23T14:26:34;7.90;;;2.00;;
51800;SDS011;37855;53.204;6.568;2023-04-23T14:29:08;7.55;;;2.20;;
51800;SDS011;37855;53.204;6.568;2023-04-23T14:31:35;6.30;;;1.75;;
51800;SDS011;37855;53.204;6.568;2023-04-23T14:34:02;7.38;;;1.70;;
51800;SDS011;37855;53.204;6.568;2023-04-23T14:36:29;8.70;;;2.03;;
51800;SDS011;37855;53.204;6.568;2023-04-23T14:38:55;6.30;;;1.90;;
51800;SDS011;37855;53.204;6.568;2023-04-23T14:41:23;8.50;;;1.80;;
51800;SDS011;37855;53.204;6.568;2023-04-23T14:43:48;7.87;;;1.90;;
51800;SDS011;37855;53.204;6.568;2023-04-23T14:46:14;7.43;;;2.20;;
51800;SDS011;37855;53.204;6.568;2023-04-23T14:48:39;7.30;;;2.27;;